Terminal Aerodrome Forecast
Issued by NWS

Home | Current Version | Previous Version | Text Only | Print | Product List | Glossary On
Versions: 1 2 3 4 5 6 7 8 9 10 11 12 13 14
000
FTUS43 KGRR 302330
TAFMKG
TAF
KMKG 302330Z 3100/3124 25010KT P6SM FEW050
     FM310100 25007KT P6SM SKC
     FM311500 27012G20KT P6SM SCT050=

USA.gov is the U.S. government's official web portal to all federal, state and local government web resources and services.